createdAt,value
2024-02-16T00:02:14.396Z,10.27
2024-02-16T00:04:44.552Z,10.26
2024-02-16T00:07:13.098Z,10.26
2024-02-16T00:09:41.447Z,10.26
2024-02-16T00:12:10.206Z,10.27
2024-02-16T00:14:38.724Z,10.25
2024-02-16T00:17:08.242Z,10.26
2024-02-16T00:19:36.694Z,10.25
2024-02-16T00:22:08.382Z,10.23
2024-02-16T00:24:37.554Z,10.19
2024-02-16T00:27:07.367Z,10.18
2024-02-16T00:29:35.944Z,10.17
2024-02-16T00:32:03.378Z,10.15
2024-02-16T00:34:31.794Z,10.15
2024-02-16T00:37:00.383Z,10.15
2024-02-16T00:39:30.839Z,10.14
2024-02-16T00:42:01.971Z,10.13
2024-02-16T00:44:30.390Z,10.11
2024-02-16T00:46:59.682Z,10.08
2024-02-16T00:49:31.037Z,10.08
2024-02-16T00:51:59.728Z,10.05
2024-02-16T00:54:30.154Z,10.02
2024-02-16T00:57:03.470Z,10.02
2024-02-16T00:59:35.018Z,10.01
2024-02-16T01:02:03.556Z,9.98
2024-02-16T01:04:32.046Z,9.98
2024-02-16T01:07:00.581Z,9.97
2024-02-16T01:09:30.480Z,9.96
2024-02-16T01:11:58.891Z,9.96
2024-02-16T01:14:27.241Z,9.96
2024-02-16T01:16:55.571Z,9.95
2024-02-16T01:19:28.940Z,9.92
2024-02-16T01:21:58.885Z,9.89
2024-02-16T01:24:28.020Z,9.88
2024-02-16T01:26:58.448Z,9.86
2024-02-16T01:29:27.612Z,9.84
2024-02-16T01:31:55.906Z,9.82
2024-02-16T01:34:24.423Z,9.80
2024-02-16T01:36:53.016Z,9.78
2024-02-16T01:39:26.605Z,9.76
2024-02-16T01:41:55.171Z,9.73
2024-02-16T01:44:25.271Z,9.72
2024-02-16T01:46:53.865Z,9.72
2024-02-16T01:49:25.736Z,9.72
2024-02-16T01:51:54.399Z,9.71
2024-02-16T01:54:22.993Z,9.71
2024-02-16T01:56:52.321Z,9.69
2024-02-16T01:59:20.886Z,9.69
2024-02-16T02:01:50.595Z,9.69
2024-02-16T02:04:19.069Z,9.68
2024-02-16T02:06:47.997Z,9.69
2024-02-16T02:09:16.640Z,9.66
2024-02-16T02:11:45.045Z,9.65
2024-02-16T02:14:13.754Z,9.62
2024-02-16T02:16:50.956Z,9.61
2024-02-16T02:19:25.622Z,9.58
2024-02-16T02:21:54.058Z,9.55
2024-02-16T02:24:27.149Z,9.54
2024-02-16T02:26:55.799Z,9.52
2024-02-16T02:29:24.153Z,9.49
2024-02-16T02:31:52.398Z,9.48
2024-02-16T02:34:21.794Z,9.44
2024-02-16T02:36:50.380Z,9.41
2024-02-16T02:39:18.694Z,9.38
2024-02-16T02:41:48.484Z,9.35
2024-02-16T02:44:22.823Z,9.32
2024-02-16T02:46:51.322Z,9.29
2024-02-16T02:49:19.864Z,9.25
2024-02-16T02:51:48.264Z,9.22
2024-02-16T02:54:16.663Z,9.19
2024-02-16T02:56:49.000Z,9.17
2024-02-16T02:59:17.563Z,9.15
2024-02-16T03:01:46.689Z,9.13
2024-02-16T03:04:15.171Z,9.11
2024-02-16T03:06:43.759Z,9.10
2024-02-16T03:09:13.862Z,9.08
2024-02-16T03:11:45.295Z,9.06
2024-02-16T03:14:15.108Z,9.04
2024-02-16T03:16:43.452Z,9.03
2024-02-16T03:19:19.330Z,9.00
2024-02-16T03:21:49.865Z,9.00
2024-02-16T03:24:18.413Z,8.98
2024-02-16T03:26:46.897Z,8.96
2024-02-16T03:29:16.767Z,8.94
2024-02-16T03:31:45.290Z,8.92
2024-02-16T03:34:14.017Z,8.90
2024-02-16T03:36:42.630Z,8.89
2024-02-16T03:39:11.150Z,8.85
2024-02-16T03:41:39.633Z,8.83
2024-02-16T03:44:08.083Z,8.81
2024-02-16T03:46:44.381Z,8.79
2024-02-16T03:49:13.411Z,8.77
2024-02-16T03:51:41.946Z,8.74
2024-02-16T03:54:10.399Z,8.73
2024-02-16T03:56:38.853Z,8.71
2024-02-16T03:59:08.898Z,8.69
2024-02-16T04:01:40.173Z,8.67
2024-02-16T04:04:08.514Z,8.65
2024-02-16T04:06:37.653Z,8.65
2024-02-16T04:09:07.297Z,8.64
2024-02-16T04:11:36.462Z,8.63
2024-02-16T04:14:05.151Z,8.62
2024-02-16T04:16:33.561Z,8.59
2024-02-16T04:19:03.469Z,8.58
2024-02-16T04:21:32.028Z,8.57
2024-02-16T04:24:00.505Z,8.59
2024-02-16T04:26:29.311Z,8.58
2024-02-16T04:28:57.737Z,8.59
2024-02-16T04:31:26.143Z,8.61
2024-02-16T04:33:55.180Z,8.61
2024-02-16T04:36:25.067Z,8.61
2024-02-16T04:38:53.576Z,8.62
2024-02-16T04:41:22.769Z,8.62
2024-02-16T04:43:51.383Z,8.61
2024-02-16T04:46:22.444Z,8.60
2024-02-16T04:48:51.003Z,8.58
2024-02-16T04:51:19.393Z,8.57
2024-02-16T04:53:49.515Z,8.57
2024-02-16T04:56:17.827Z,8.57
2024-02-16T04:58:46.262Z,8.56
2024-02-16T05:01:15.889Z,8.55
2024-02-16T05:03:44.337Z,8.55
2024-02-16T05:06:13.196Z,8.55
2024-02-16T05:08:41.689Z,8.57
2024-02-16T05:11:11.420Z,8.56
2024-02-16T05:13:40.585Z,8.56
2024-02-16T05:16:10.362Z,8.56
2024-02-16T05:18:39.264Z,8.57
2024-02-16T05:21:08.505Z,8.57
2024-02-16T05:23:37.157Z,8.58
2024-02-16T05:26:06.424Z,8.58
2024-02-16T05:28:36.435Z,8.58
2024-02-16T05:31:16.910Z,8.56
2024-02-16T05:33:50.616Z,8.55
2024-02-16T05:36:21.701Z,8.54
2024-02-16T05:38:50.631Z,8.54
2024-02-16T05:41:20.173Z,8.53
2024-02-16T05:43:50.731Z,8.53
2024-02-16T05:46:20.107Z,8.53
2024-02-16T05:48:48.500Z,8.53
2024-02-16T05:51:16.960Z,8.54
2024-02-16T05:53:46.605Z,8.54
2024-02-16T05:56:14.953Z,8.53
2024-02-16T05:58:43.251Z,8.52
2024-02-16T06:01:14.043Z,8.50
2024-02-16T06:03:44.119Z,8.50
2024-02-16T06:06:12.599Z,8.49
2024-02-16T06:08:41.571Z,8.50
2024-02-16T06:11:10.139Z,8.49
2024-02-16T06:13:38.602Z,8.50
2024-02-16T06:16:09.631Z,8.51
2024-02-16T06:18:40.031Z,8.51
2024-02-16T06:21:08.602Z,8.50
2024-02-16T06:23:36.969Z,8.49
2024-02-16T06:26:05.546Z,8.50
2024-02-16T06:28:33.858Z,8.51
2024-02-16T06:31:02.284Z,8.52
2024-02-16T06:33:30.788Z,8.53
2024-02-16T06:36:00.606Z,8.52
2024-02-16T06:38:28.915Z,8.52
2024-02-16T06:40:57.232Z,8.50
2024-02-16T06:43:25.580Z,8.49
2024-02-16T06:45:56.365Z,8.48
2024-02-16T06:48:24.940Z,8.45
2024-02-16T06:50:54.830Z,8.45
2024-02-16T06:53:24.785Z,8.44
2024-02-16T06:55:53.111Z,8.44
2024-02-16T06:58:21.381Z,8.44
2024-02-16T07:00:53.731Z,8.43
2024-02-16T07:03:22.422Z,8.44
2024-02-16T07:05:50.857Z,8.45
2024-02-16T07:08:19.421Z,8.45
2024-02-16T07:10:49.870Z,8.47
2024-02-16T07:13:18.667Z,8.51
2024-02-16T07:15:47.266Z,8.56
2024-02-16T07:18:15.866Z,8.63
2024-02-16T07:20:44.266Z,8.73
2024-02-16T07:23:13.381Z,8.81
2024-02-16T07:25:41.763Z,8.90
2024-02-16T07:28:11.732Z,8.99
2024-02-16T07:30:43.461Z,9.10
2024-02-16T07:33:12.616Z,9.23
2024-02-16T07:35:41.017Z,9.37
2024-02-16T07:38:09.320Z,9.57
2024-02-16T07:40:37.687Z,9.72
2024-02-16T07:43:06.641Z,9.90
2024-02-16T07:45:36.646Z,10.10
2024-02-16T07:48:06.872Z,10.28
2024-02-16T07:50:35.668Z,10.41
2024-02-16T07:53:04.057Z,10.52
2024-02-16T07:55:32.392Z,10.61
2024-02-16T07:58:01.233Z,10.70
2024-02-16T08:00:30.371Z,10.77
2024-02-16T08:03:00.284Z,10.82
2024-02-16T08:05:28.948Z,10.88
2024-02-16T08:07:57.508Z,10.95
2024-02-16T08:10:26.848Z,11.00
2024-02-16T08:12:57.874Z,11.04
2024-02-16T08:15:27.108Z,11.09
2024-02-16T08:17:56.106Z,11.14
2024-02-16T08:20:26.015Z,11.20
2024-02-16T08:22:55.261Z,11.24
2024-02-16T08:25:23.612Z,11.31
2024-02-16T08:27:52.088Z,11.35
2024-02-16T08:30:23.788Z,11.41
2024-02-16T08:32:52.398Z,11.45
2024-02-16T08:35:21.291Z,11.51
2024-02-16T08:37:51.034Z,11.58
2024-02-16T08:40:19.452Z,11.65
2024-02-16T08:42:48.605Z,11.72
2024-02-16T08:45:18.770Z,11.77
2024-02-16T08:47:50.487Z,11.83
2024-02-16T08:50:21.378Z,11.89
2024-02-16T08:52:51.268Z,11.96
2024-02-16T08:55:19.658Z,12.01
2024-02-16T08:57:48.102Z,12.06
2024-02-16T09:00:18.058Z,12.11
2024-02-16T09:02:47.610Z,12.15
2024-02-16T09:05:16.070Z,12.20
2024-02-16T09:07:44.425Z,12.27
2024-02-16T09:10:15.834Z,12.29
2024-02-16T09:12:44.378Z,12.34
2024-02-16T09:15:13.181Z,12.37
2024-02-16T09:17:41.745Z,12.40
2024-02-16T09:20:13.125Z,12.44
2024-02-16T09:22:47.055Z,12.47
2024-02-16T09:25:17.639Z,12.51
2024-02-16T09:27:46.718Z,12.54
2024-02-16T09:30:16.420Z,12.57
2024-02-16T09:32:44.914Z,12.60
2024-02-16T09:35:14.250Z,12.66
2024-02-16T09:37:42.897Z,12.73
2024-02-16T09:40:14.816Z,12.81
2024-02-16T09:42:44.767Z,12.86
2024-02-16T09:45:17.263Z,12.91
2024-02-16T09:47:54.392Z,13.00
2024-02-16T09:50:29.706Z,13.06
2024-02-16T09:52:59.962Z,13.13
2024-02-16T09:55:34.643Z,13.22
2024-02-16T09:58:06.251Z,13.31
2024-02-16T10:00:34.796Z,13.39
2024-02-16T10:03:03.329Z,13.44
2024-02-16T10:05:32.571Z,13.52
2024-02-16T10:08:00.930Z,13.61
2024-02-16T10:10:32.922Z,13.68
2024-02-16T10:13:06.364Z,13.80
2024-02-16T10:15:35.427Z,13.96
2024-02-16T10:18:05.538Z,14.19
2024-02-16T10:20:36.844Z,14.43
2024-02-16T10:23:10.270Z,14.72
2024-02-16T10:25:40.503Z,15.03
2024-02-16T10:28:13.621Z,15.36
2024-02-16T10:30:45.266Z,15.66
2024-02-16T10:33:15.007Z,15.94
2024-02-16T10:35:45.482Z,16.22
2024-02-16T10:38:15.024Z,16.47
2024-02-16T10:40:45.823Z,16.76
2024-02-16T10:43:17.951Z,17.01
2024-02-16T10:45:48.543Z,17.24
2024-02-16T10:48:18.032Z,17.48
2024-02-16T10:50:47.004Z,17.71
2024-02-16T10:53:20.846Z,17.87
2024-02-16T10:55:49.562Z,18.04
2024-02-16T10:58:19.888Z,18.20
2024-02-16T11:00:53.338Z,18.37
2024-02-16T11:03:26.862Z,18.50
2024-02-16T11:05:56.426Z,18.59
2024-02-16T11:08:29.044Z,18.70
2024-02-16T11:10:59.187Z,18.79
2024-02-16T11:13:30.482Z,18.84
2024-02-16T11:16:03.799Z,18.89
2024-02-16T11:18:33.411Z,18.94
2024-02-16T11:21:06.707Z,18.98
2024-02-16T11:23:37.549Z,19.01
2024-02-16T11:26:10.242Z,19.04
2024-02-16T11:28:42.374Z,19.06
2024-02-16T11:31:11.407Z,19.05
2024-02-16T11:33:46.503Z,19.06
2024-02-16T11:36:15.483Z,19.06
2024-02-16T11:38:44.156Z,19.06
2024-02-16T11:41:12.673Z,19.05
2024-02-16T11:43:43.127Z,19.05
2024-02-16T11:46:18.837Z,19.05
2024-02-16T11:48:49.345Z,19.03
2024-02-16T11:51:19.373Z,19.03
2024-02-16T11:53:57.736Z,18.98
2024-02-16T11:56:26.710Z,18.99
2024-02-16T11:58:57.073Z,18.96
2024-02-16T12:01:25.982Z,18.93
2024-02-16T12:03:54.481Z,18.92
2024-02-16T12:06:26.909Z,18.91
2024-02-16T12:08:55.533Z,18.92
2024-02-16T12:11:25.957Z,18.91
2024-02-16T12:13:56.943Z,18.91
2024-02-16T12:16:27.821Z,18.91
2024-02-16T12:19:06.249Z,18.90
2024-02-16T12:21:34.884Z,18.92
2024-02-16T12:24:03.474Z,18.93
2024-02-16T12:26:31.800Z,18.95
2024-02-16T12:29:01.891Z,18.97
2024-02-16T12:31:30.656Z,18.98
2024-02-16T12:33:59.367Z,19.02
2024-02-16T12:36:28.366Z,19.06
2024-02-16T12:38:56.860Z,19.08
2024-02-16T12:41:25.236Z,19.10
2024-02-16T12:43:54.577Z,19.13
2024-02-16T12:46:24.264Z,19.17
2024-02-16T12:48:53.557Z,19.17
2024-02-16T12:51:22.583Z,19.21
2024-02-16T12:53:51.049Z,19.24
2024-02-16T12:56:19.707Z,19.30
2024-02-16T12:58:48.203Z,19.38
2024-02-16T13:01:25.718Z,19.42
2024-02-16T13:03:56.508Z,19.50
2024-02-16T13:06:28.051Z,19.56
2024-02-16T13:08:58.056Z,19.64
2024-02-16T13:11:26.596Z,19.70
2024-02-16T13:13:55.524Z,19.79
2024-02-16T13:16:24.044Z,19.89
2024-02-16T13:18:52.824Z,19.98
2024-02-16T13:21:22.754Z,20.06
2024-02-16T13:23:51.400Z,20.15
2024-02-16T13:26:19.805Z,20.23
2024-02-16T13:28:48.330Z,20.33
2024-02-16T13:31:17.138Z,20.40
2024-02-16T13:33:45.686Z,20.49
2024-02-16T13:36:14.050Z,20.57
2024-02-16T13:38:43.839Z,20.66
2024-02-16T13:41:12.200Z,20.72
2024-02-16T13:43:40.608Z,20.77
2024-02-16T13:46:09.097Z,20.80
2024-02-16T13:48:38.870Z,20.81
2024-02-16T13:51:08.393Z,20.81
2024-02-16T13:53:38.141Z,20.79
2024-02-16T13:56:09.730Z,20.78
2024-02-16T13:58:39.111Z,20.74
2024-02-16T14:01:07.742Z,20.69
2024-02-16T14:03:37.957Z,20.64
2024-02-16T14:06:09.152Z,20.57
2024-02-16T14:08:37.673Z,20.50
2024-02-16T14:11:07.752Z,20.42
2024-02-16T14:13:36.078Z,20.37
2024-02-16T14:16:04.528Z,20.30
2024-02-16T14:18:35.493Z,20.24
2024-02-16T14:21:05.754Z,20.19
2024-02-16T14:23:34.582Z,20.15
2024-02-16T14:26:03.206Z,20.11
2024-02-16T14:28:32.951Z,20.07
2024-02-16T14:31:01.572Z,20.04
2024-02-16T14:33:34.274Z,20.00
2024-02-16T14:36:04.466Z,19.95
2024-02-16T14:38:33.228Z,19.94
2024-02-16T14:41:05.083Z,19.90
2024-02-16T14:43:35.460Z,19.88
2024-02-16T14:46:05.372Z,19.86
2024-02-16T14:48:34.191Z,19.83
2024-02-16T14:51:03.418Z,19.81
2024-02-16T14:53:33.999Z,19.80
2024-02-16T14:56:04.298Z,19.76
2024-02-16T14:58:34.312Z,19.73
2024-02-16T15:01:02.857Z,19.68
2024-02-16T15:03:31.919Z,19.67
2024-02-16T15:06:00.483Z,19.65
2024-02-16T15:08:29.199Z,19.64
2024-02-16T15:10:57.579Z,19.62
2024-02-16T15:13:27.016Z,19.59
2024-02-16T15:15:56.736Z,19.58
2024-02-16T15:18:25.499Z,19.55
2024-02-16T15:20:55.472Z,19.53
2024-02-16T15:23:24.891Z,19.47
2024-02-16T15:25:53.336Z,19.44
2024-02-16T15:28:21.881Z,19.41
2024-02-16T15:30:50.258Z,19.35
2024-02-16T15:33:20.473Z,19.30
2024-02-16T15:35:48.882Z,19.25
2024-02-16T15:38:17.314Z,19.20
2024-02-16T15:40:45.780Z,19.19
2024-02-16T15:43:14.250Z,19.15
2024-02-16T15:45:43.363Z,19.09
2024-02-16T15:48:13.422Z,19.06
2024-02-16T15:50:43.890Z,19.01
2024-02-16T15:53:12.730Z,18.97
2024-02-16T15:55:43.572Z,18.92
2024-02-16T15:58:12.241Z,18.86
2024-02-16T16:00:41.040Z,18.83
2024-02-16T16:03:10.842Z,18.78
2024-02-16T16:05:39.883Z,18.73
2024-02-16T16:08:10.001Z,18.68
2024-02-16T16:10:38.529Z,18.65
2024-02-16T16:13:08.597Z,18.59
2024-02-16T16:15:36.950Z,18.55
2024-02-16T16:18:06.473Z,18.51
2024-02-16T16:20:34.918Z,18.45
2024-02-16T16:23:03.844Z,18.40
2024-02-16T16:25:33.574Z,18.34
2024-02-16T16:28:01.988Z,18.28
2024-02-16T16:30:30.785Z,18.22
2024-02-16T16:32:59.333Z,18.16
2024-02-16T16:35:33.400Z,18.08
2024-02-16T16:38:02.383Z,18.02
2024-02-16T16:40:30.852Z,17.94
2024-02-16T16:43:00.592Z,17.88
2024-02-16T16:45:30.381Z,17.83
2024-02-16T16:48:01.610Z,17.78
2024-02-16T16:50:32.004Z,17.70
2024-02-16T16:53:00.580Z,17.63
2024-02-16T16:55:29.226Z,17.57
2024-02-16T16:57:58.880Z,17.49
2024-02-16T17:00:27.522Z,17.44
2024-02-16T17:02:57.043Z,17.38
2024-02-16T17:05:25.336Z,17.32
2024-02-16T17:07:54.288Z,17.27
2024-02-16T17:10:22.923Z,17.23
2024-02-16T17:12:51.443Z,17.18
2024-02-16T17:15:21.459Z,17.13
2024-02-16T17:17:53.063Z,17.08
2024-02-16T17:20:25.611Z,17.02
2024-02-16T17:22:55.761Z,16.98
2024-02-16T17:25:25.506Z,16.92
2024-02-16T17:27:54.219Z,16.89
2024-02-16T17:30:24.288Z,16.84
2024-02-16T17:32:52.915Z,16.80
2024-02-16T17:35:21.525Z,16.76
2024-02-16T17:37:54.094Z,16.73
2024-02-16T17:40:22.652Z,16.68
2024-02-16T17:42:51.078Z,16.62
2024-02-16T17:45:20.126Z,16.57
2024-02-16T17:47:49.995Z,16.54
2024-02-16T17:50:19.209Z,16.51
2024-02-16T17:52:47.655Z,16.46
2024-02-16T17:55:16.191Z,16.41
2024-02-16T17:57:44.753Z,16.36
2024-02-16T18:00:17.459Z,16.32
2024-02-16T18:02:48.301Z,16.28
2024-02-16T18:05:19.573Z,16.24
2024-02-16T18:07:48.523Z,16.21
2024-02-16T18:10:17.710Z,16.16
2024-02-16T18:12:46.095Z,16.13
2024-02-16T18:15:14.717Z,16.08
2024-02-16T18:17:43.466Z,16.04
2024-02-16T18:20:14.624Z,16.00
2024-02-16T18:22:44.339Z,15.96
2024-02-16T18:25:12.629Z,15.94
2024-02-16T18:27:41.101Z,15.91
2024-02-16T18:30:11.597Z,15.88
2024-02-16T18:32:40.061Z,15.83
2024-02-16T18:35:09.394Z,15.79
2024-02-16T18:37:37.922Z,15.76
2024-02-16T18:40:10.741Z,15.70
2024-02-16T18:42:39.633Z,15.68
2024-02-16T18:45:10.343Z,15.63
2024-02-16T18:47:39.993Z,15.59
2024-02-16T18:50:10.875Z,15.57
2024-02-16T18:52:39.530Z,15.54
2024-02-16T18:55:10.194Z,15.51
2024-02-16T18:57:38.814Z,15.48
2024-02-16T19:00:09.850Z,15.45
2024-02-16T19:02:43.089Z,15.42
2024-02-16T19:05:12.028Z,15.37
2024-02-16T19:07:40.400Z,15.34
2024-02-16T19:10:12.095Z,15.30
2024-02-16T19:12:40.668Z,15.28
2024-02-16T19:15:11.009Z,15.24
2024-02-16T19:17:39.550Z,15.22
2024-02-16T19:20:09.429Z,15.19
2024-02-16T19:22:37.874Z,15.16
2024-02-16T19:25:07.641Z,15.14
2024-02-16T19:27:37.440Z,15.10
2024-02-16T19:30:07.832Z,15.07
2024-02-16T19:32:36.353Z,15.05
2024-02-16T19:35:06.430Z,15.02
2024-02-16T19:37:35.115Z,14.98
2024-02-16T19:40:03.436Z,14.96
2024-02-16T19:42:31.799Z,14.92
2024-02-16T19:45:01.633Z,14.89
2024-02-16T19:47:30.361Z,14.87
2024-02-16T19:49:58.708Z,14.85
2024-02-16T19:52:27.219Z,14.80
2024-02-16T19:54:59.023Z,14.77
2024-02-16T19:57:27.972Z,14.75
2024-02-16T19:59:56.718Z,14.72
2024-02-16T20:02:26.537Z,14.69
2024-02-16T20:05:03.116Z,14.68
2024-02-16T20:07:37.805Z,14.62
2024-02-16T20:10:09.378Z,14.60
2024-02-16T20:12:37.822Z,14.56
2024-02-16T20:15:07.254Z,14.55
2024-02-16T20:17:37.564Z,14.50
2024-02-16T20:20:07.428Z,14.47
2024-02-16T20:22:35.950Z,14.43
2024-02-16T20:25:08.276Z,14.41
2024-02-16T20:27:37.883Z,14.38
2024-02-16T20:30:08.534Z,14.36
2024-02-16T20:32:40.395Z,14.33
2024-02-16T20:35:10.542Z,14.31
2024-02-16T20:37:39.009Z,14.28
2024-02-16T20:40:09.451Z,14.25
2024-02-16T20:42:39.547Z,14.23
2024-02-16T20:45:08.942Z,14.18
2024-02-16T20:47:40.909Z,14.16
2024-02-16T20:50:11.107Z,14.11
2024-02-16T20:52:39.565Z,14.07
2024-02-16T20:55:09.210Z,14.05
2024-02-16T20:57:37.578Z,14.04
2024-02-16T21:00:09.746Z,14.01
2024-02-16T21:02:40.191Z,14.00
2024-02-16T21:05:09.720Z,13.98
2024-02-16T21:07:38.209Z,13.97
2024-02-16T21:10:07.793Z,13.96
2024-02-16T21:12:36.109Z,13.95
2024-02-16T21:15:05.242Z,13.95
2024-02-16T21:17:33.583Z,13.94
2024-02-16T21:20:03.948Z,13.91
2024-02-16T21:22:34.800Z,13.91
2024-02-16T21:25:09.016Z,13.91
2024-02-16T21:27:37.368Z,13.89
2024-02-16T21:30:07.512Z,13.88
2024-02-16T21:32:35.921Z,13.87
2024-02-16T21:35:07.077Z,13.87
2024-02-16T21:37:36.302Z,13.88
2024-02-16T21:40:05.048Z,13.87
2024-02-16T21:42:33.375Z,13.86
2024-02-16T21:45:01.889Z,13.86
2024-02-16T21:47:30.291Z,13.86
2024-02-16T21:49:58.734Z,13.86
2024-02-16T21:52:28.412Z,13.86
2024-02-16T21:54:56.879Z,13.85
2024-02-16T21:57:25.384Z,13.85
2024-02-16T21:59:53.929Z,13.84
2024-02-16T22:02:22.296Z,13.85
2024-02-16T22:04:52.067Z,13.84
2024-02-16T22:07:20.604Z,13.85
2024-02-16T22:09:50.457Z,13.85
2024-02-16T22:12:20.564Z,13.84
2024-02-16T22:14:48.937Z,13.85
2024-02-16T22:17:17.282Z,13.85
2024-02-16T22:19:45.725Z,13.85
2024-02-16T22:22:15.733Z,13.85
2024-02-16T22:24:44.443Z,13.85
2024-02-16T22:27:14.229Z,13.85
2024-02-16T22:29:42.506Z,13.85
2024-02-16T22:32:17.148Z,13.84
2024-02-16T22:34:47.234Z,13.84
2024-02-16T22:37:15.665Z,13.83
2024-02-16T22:39:44.033Z,13.83
2024-02-16T22:42:13.822Z,13.81
2024-02-16T22:44:42.457Z,13.81
2024-02-16T22:47:10.764Z,13.81
2024-02-16T22:49:39.273Z,13.81
2024-02-16T22:52:08.021Z,13.80
2024-02-16T22:54:36.574Z,13.78
2024-02-16T22:57:05.275Z,13.79
2024-02-16T22:59:35.084Z,13.77
2024-02-16T23:02:03.440Z,13.77
2024-02-16T23:04:31.842Z,13.78
2024-02-16T23:07:00.378Z,13.77
2024-02-16T23:09:28.867Z,13.77
2024-02-16T23:11:57.246Z,13.77
2024-02-16T23:14:28.513Z,13.76
2024-02-16T23:16:58.312Z,13.73
2024-02-16T23:19:27.104Z,13.73
2024-02-16T23:21:56.358Z,13.71
2024-02-16T23:24:24.770Z,13.70
2024-02-16T23:26:53.586Z,13.70
2024-02-16T23:29:26.259Z,13.70
2024-02-16T23:31:55.558Z,13.68
2024-02-16T23:34:25.305Z,13.67
2024-02-16T23:36:53.673Z,13.68
2024-02-16T23:39:27.386Z,13.67
2024-02-16T23:41:55.788Z,13.67
2024-02-16T23:44:24.144Z,13.67
2024-02-16T23:46:54.001Z,13.67
2024-02-16T23:49:36.065Z,13.65
2024-02-16T23:52:05.019Z,13.66
2024-02-16T23:54:33.395Z,13.66
2024-02-16T23:57:02.211Z,13.68
2024-02-16T23:59:30.648Z,13.69
